sensor_id;sensor_type;location;lat;lon;timestamp;pressure;altitude;pressure_sealevel;temperature;humidity
55217;BME280;41086;46.736;15.666;2023-04-08T00:00:26;98497.38;;;4.97;100.00
55217;BME280;41086;46.736;15.666;2023-04-08T00:02:53;98504.41;;;4.96;100.00
55217;BME280;41086;46.736;15.666;2023-04-08T00:05:20;98497.38;;;4.97;100.00
55217;BME280;41086;46.736;15.666;2023-04-08T00:07:47;98501.84;;;4.95;100.00
55217;BME280;41086;46.736;15.666;2023-04-08T00:10:14;98498.44;;;4.93;100.00
55217;BME280;41086;46.736;15.666;2023-04-08T00:12:40;98495.81;;;4.93;100.00
55217;BME280;41086;46.736;15.666;2023-04-08T00:15:07;98495.03;;;4.91;100.00
55217;BME280;41086;46.736;15.666;2023-04-08T00:17:34;98488.91;;;4.90;100.00
55217;BME280;41086;46.736;15.666;2023-04-08T00:20:03;98489.84;;;4.89;100.00
55217;BME280;41086;46.736;15.666;2023-04-08T00:22:30;98483.97;;;4.84;100.00
55217;BME280;41086;46.736;15.666;2023-04-08T00:24:57;98490.84;;;4.86;100.00
55217;BME280;41086;46.736;15.666;2023-04-08T00:27:24;98470.88;;;4.82;100.00
55217;BME280;41086;46.736;15.666;2023-04-08T00:29:51;98483.88;;;4.85;100.00
55217;BME280;41086;46.736;15.666;2023-04-08T00:32:18;98489.22;;;4.84;100.00
55217;BME280;41086;46.736;15.666;2023-04-08T00:34:44;98476.97;;;4.83;100.00
55217;BME280;41086;46.736;15.666;2023-04-08T00:37:11;98482.38;;;4.80;100.00
55217;BME280;41086;46.736;15.666;2023-04-08T00:39:38;98477.06;;;4.81;100.00
55217;BME280;41086;46.736;15.666;2023-04-08T00:42:04;98479.84;;;4.78;100.00
55217;BME280;41086;46.736;15.666;2023-04-08T00:44:32;98487.63;;;4.80;100.00
55217;BME280;41086;46.736;15.666;2023-04-08T00:46:58;98480.72;;;4.77;100.00
55217;BME280;41086;46.736;15.666;2023-04-08T00:49:25;98484.44;;;4.73;100.00
55217;BME280;41086;46.736;15.666;2023-04-08T00:51:53;98479.31;;;4.70;100.00
55217;BME280;41086;46.736;15.666;2023-04-08T00:54:20;98475.84;;;4.70;100.00
55217;BME280;41086;46.736;15.666;2023-04-08T00:56:47;98478.47;;;4.70;100.00
55217;BME280;41086;46.736;15.666;2023-04-08T00:59:16;98485.47;;;4.69;100.00
55217;BME280;41086;46.736;15.666;2023-04-08T01:02:11;98479.53;;;4.65;100.00
55217;BME280;41086;46.736;15.666;2023-04-08T01:07:37;98475.25;;;4.63;100.00
55217;BME280;41086;46.736;15.666;2023-04-08T01:10:12;98478.88;;;4.60;100.00
55217;BME280;41086;46.736;15.666;2023-04-08T01:13:13;98473.75;;;4.57;100.00
55217;BME280;41086;46.736;15.666;2023-04-08T01:15:38;98470.44;;;4.54;100.00
55217;BME280;41086;46.736;15.666;2023-04-08T01:18:08;98468.66;;;4.54;100.00
55217;BME280;41086;46.736;15.666;2023-04-08T01:20:36;98469.50;;;4.55;100.00
55217;BME280;41086;46.736;15.666;2023-04-08T01:25:56;98465.19;;;4.54;100.00
55217;BME280;41086;46.736;15.666;2023-04-08T01:28:27;98468.84;;;4.50;100.00
55217;BME280;41086;46.736;15.666;2023-04-08T01:30:58;98465.50;;;4.46;100.00
55217;BME280;41086;46.736;15.666;2023-04-08T01:33:27;98464.72;;;4.44;100.00
55217;BME280;41086;46.736;15.666;2023-04-08T01:35:55;98466.50;;;4.43;100.00
55217;BME280;41086;46.736;15.666;2023-04-08T01:38:24;98464.72;;;4.44;100.00
55217;BME280;41086;46.736;15.666;2023-04-08T01:40:52;98467.28;;;4.46;100.00
55217;BME280;41086;46.736;15.666;2023-04-08T01:43:21;98464.59;;;4.47;100.00
55217;BME280;41086;46.736;15.666;2023-04-08T01:45:48;98463.69;;;4.48;100.00
55217;BME280;41086;46.736;15.666;2023-04-08T01:48:20;98455.88;;;4.47;100.00
55217;BME280;41086;46.736;15.666;2023-04-08T01:50:48;98470.63;;;4.49;100.00
55217;BME280;41086;46.736;15.666;2023-04-08T01:53:16;98466.22;;;4.50;100.00
55217;BME280;41086;46.736;15.666;2023-04-08T01:55:44;98456.78;;;4.46;100.00
55217;BME280;41086;46.736;15.666;2023-04-08T01:58:17;98461.06;;;4.48;100.00
55217;BME280;41086;46.736;15.666;2023-04-08T02:00:46;98457.56;;;4.48;100.00
55217;BME280;41086;46.736;15.666;2023-04-08T02:03:16;98457.56;;;4.48;100.00
55217;BME280;41086;46.736;15.666;2023-04-08T02:05:45;98457.56;;;4.48;100.00
55217;BME280;41086;46.736;15.666;2023-04-08T02:08:12;98454.09;;;4.47;100.00
55217;BME280;41086;46.736;15.666;2023-04-08T02:10:39;98458.53;;;4.45;100.00
55217;BME280;41086;46.736;15.666;2023-04-08T02:13:06;98459.34;;;4.47;100.00
55217;BME280;41086;46.736;15.666;2023-04-08T02:15:35;98460.13;;;4.49;100.00
55217;BME280;41086;46.736;15.666;2023-04-08T02:18:16;98457.56;;;4.48;100.00
55217;BME280;41086;46.736;15.666;2023-04-08T02:20:54;98452.41;;;4.46;100.00
55217;BME280;41086;46.736;15.666;2023-04-08T02:23:24;98455.88;;;4.47;100.00
55217;BME280;41086;46.736;15.666;2023-04-08T02:25:55;98456.78;;;4.46;100.00
55217;BME280;41086;46.736;15.666;2023-04-08T02:28:25;98457.78;;;4.43;100.00
55217;BME280;41086;46.736;15.666;2023-04-08T02:30:56;98459.56;;;4.42;100.00
55217;BME280;41086;46.736;15.666;2023-04-08T02:33:23;98453.44;;;4.42;100.00
55217;BME280;41086;46.736;15.666;2023-04-08T02:35:53;98460.47;;;4.41;100.00
55217;BME280;41086;46.736;15.666;2023-04-08T02:38:22;98449.13;;;4.41;100.00
55217;BME280;41086;46.736;15.666;2023-04-08T02:40:49;98460.53;;;4.40;100.00
55217;BME280;41086;46.736;15.666;2023-04-08T02:43:17;98451.78;;;4.39;100.00
55217;BME280;41086;46.736;15.666;2023-04-08T02:45:44;98454.56;;;4.36;100.00
55217;BME280;41086;46.736;15.666;2023-04-08T02:48:11;98459.88;;;4.35;100.00
55217;BME280;41086;46.736;15.666;2023-04-08T02:50:38;98457.59;;;4.27;100.00
55217;BME280;41086;46.736;15.666;2023-04-08T02:53:07;98459.56;;;4.22;100.00
55217;BME280;41086;46.736;15.666;2023-04-08T02:55:35;98465.84;;;4.18;100.00
55217;BME280;41086;46.736;15.666;2023-04-08T02:58:03;98461.63;;;4.15;100.00
55217;BME280;41086;46.736;15.666;2023-04-08T03:00:30;98464.16;;;4.17;100.00
55217;BME280;41086;46.736;15.666;2023-04-08T03:02:56;98459.97;;;4.13;100.00
55217;BME280;41086;46.736;15.666;2023-04-08T03:05:25;98465.09;;;4.16;100.00
55217;BME280;41086;46.736;15.666;2023-04-08T03:07:52;98472.88;;;4.17;100.00
55217;BME280;41086;46.736;15.666;2023-04-08T03:10:19;98470.19;;;4.19;100.00
55217;BME280;41086;46.736;15.666;2023-04-08T03:12:45;98464.94;;;4.19;100.00
55217;BME280;41086;46.736;15.666;2023-04-08T03:15:12;98464.00;;;4.20;100.00
55217;BME280;41086;46.736;15.666;2023-04-08T03:17:39;98470.06;;;4.22;100.00
55217;BME280;41086;46.736;15.666;2023-04-08T03:20:07;98471.75;;;4.23;100.00
55217;BME280;41086;46.736;15.666;2023-04-08T03:22:34;98464.16;;;4.17;100.00
55217;BME280;41086;46.736;15.666;2023-04-08T03:25:02;98459.88;;;4.14;100.00
55217;BME280;41086;46.736;15.666;2023-04-08T03:27:29;98476.28;;;4.19;100.00
55217;BME280;41086;46.736;15.666;2023-04-08T03:29:56;98472.81;;;4.19;100.00
55217;BME280;41086;46.736;15.666;2023-04-08T03:32:23;98473.72;;;4.18;100.00
55217;BME280;41086;46.736;15.666;2023-04-08T03:34:50;98472.88;;;4.17;100.00
55217;BME280;41086;46.736;15.666;2023-04-08T03:37:17;98470.38;;;4.14;100.00
55217;BME280;41086;46.736;15.666;2023-04-08T03:39:44;98478.97;;;4.18;100.00
55217;BME280;41086;46.736;15.666;2023-04-08T03:42:11;98479.03;;;4.16;100.00
55217;BME280;41086;46.736;15.666;2023-04-08T03:44:38;98481.47;;;4.21;100.00
55217;BME280;41086;46.736;15.666;2023-04-08T03:47:05;98484.88;;;4.23;100.00
55217;BME280;41086;46.736;15.666;2023-04-08T03:49:32;98487.44;;;4.25;100.00
55217;BME280;41086;46.736;15.666;2023-04-08T03:51:59;98487.38;;;4.26;100.00
55217;BME280;41086;46.736;15.666;2023-04-08T03:54:25;98485.78;;;4.22;100.00
55217;BME280;41086;46.736;15.666;2023-04-08T03:56:52;98488.47;;;4.20;100.00
55217;BME280;41086;46.736;15.666;2023-04-08T03:59:19;98491.19;;;4.19;100.00
55217;BME280;41086;46.736;15.666;2023-04-08T04:01:46;98499.03;;;4.19;100.00
55217;BME280;41086;46.736;15.666;2023-04-08T04:04:13;98503.38;;;4.20;100.00
55217;BME280;41086;46.736;15.666;2023-04-08T04:06:40;98502.50;;;4.19;100.00
55217;BME280;41086;46.736;15.666;2023-04-08T04:09:07;98507.63;;;4.22;100.00
55217;BME280;41086;46.736;15.666;2023-04-08T04:11:34;98509.41;;;4.22;100.00
55217;BME280;41086;46.736;15.666;2023-04-08T04:14:01;98514.50;;;4.25;100.00
55217;BME280;41086;46.736;15.666;2023-04-08T04:16:28;98516.34;;;4.23;100.00
55217;BME280;41086;46.736;15.666;2023-04-08T04:18:58;98521.69;;;4.21;100.00
55217;BME280;41086;46.736;15.666;2023-04-08T04:21:25;98522.00;;;4.14;100.00
55217;BME280;41086;46.736;15.666;2023-04-08T04:23:52;98521.50;;;4.04;100.00
55217;BME280;41086;46.736;15.666;2023-04-08T04:26:19;98522.38;;;4.05;100.00
55217;BME280;41086;46.736;15.666;2023-04-08T04:28:46;98533.72;;;4.05;100.00
55217;BME280;41086;46.736;15.666;2023-04-08T04:31:19;98530.19;;;4.06;100.00
55217;BME280;41086;46.736;15.666;2023-04-08T04:33:47;98525.06;;;4.03;100.00
55217;BME280;41086;46.736;15.666;2023-04-08T04:36:14;98521.59;;;4.03;100.00
55217;BME280;41086;46.736;15.666;2023-04-08T04:38:41;98526.75;;;4.04;100.00
55217;BME280;41086;46.736;15.666;2023-04-08T04:41:08;98530.19;;;4.06;100.00
55217;BME280;41086;46.736;15.666;2023-04-08T04:43:35;98530.03;;;4.09;100.00
55217;BME280;41086;46.736;15.666;2023-04-08T04:46:03;98536.94;;;4.12;100.00
55217;BME280;41086;46.736;15.666;2023-04-08T04:48:32;98535.94;;;4.14;100.00
55217;BME280;41086;46.736;15.666;2023-04-08T04:51:00;98535.91;;;4.16;100.00
55217;BME280;41086;46.736;15.666;2023-04-08T04:53:31;98542.78;;;4.18;100.00
55217;BME280;41086;46.736;15.666;2023-04-08T04:55:58;98537.47;;;4.20;100.00
55217;BME280;41086;46.736;15.666;2023-04-08T04:58:28;98540.75;;;4.25;100.00
55217;BME280;41086;46.736;15.666;2023-04-08T05:00:54;98541.53;;;4.27;100.00
55217;BME280;41086;46.736;15.666;2023-04-08T05:03:22;98550.13;;;4.31;100.00
55217;BME280;41086;46.736;15.666;2023-04-08T05:05:53;98552.75;;;4.31;100.00
55217;BME280;41086;46.736;15.666;2023-04-08T05:08:20;98538.56;;;4.14;100.00
55217;BME280;41086;46.736;15.666;2023-04-08T05:10:47;98560.50;;;4.13;100.00
55217;BME280;41086;46.736;15.666;2023-04-08T05:13:17;98558.59;;;4.17;100.00
55217;BME280;41086;46.736;15.666;2023-04-08T05:15:44;98561.91;;;4.20;100.00
55217;BME280;41086;46.736;15.666;2023-04-08T05:18:11;98560.03;;;4.24;100.00
55217;BME280;41086;46.736;15.666;2023-04-08T05:20:38;98561.56;;;4.30;100.00
55217;BME280;41086;46.736;15.666;2023-04-08T05:23:05;98565.56;;;4.38;100.00
55217;BME280;41086;46.736;15.666;2023-04-08T05:25:34;98563.50;;;4.45;100.00
55217;BME280;41086;46.736;15.666;2023-04-08T05:28:01;98570.34;;;4.49;100.00
55217;BME280;41086;46.736;15.666;2023-04-08T05:30:27;98585.13;;;4.52;100.00
55217;BME280;41086;46.736;15.666;2023-04-08T05:32:54;98580.72;;;4.52;100.00
55217;BME280;41086;46.736;15.666;2023-04-08T05:35:25;98585.91;;;4.54;100.00
55217;BME280;41086;46.736;15.666;2023-04-08T05:37:52;98592.16;;;4.51;100.00
55217;BME280;41086;46.736;15.666;2023-04-08T05:40:19;98588.41;;;4.57;100.00
55217;BME280;41086;46.736;15.666;2023-04-08T05:42:46;98585.47;;;4.64;100.00
55217;BME280;41086;46.736;15.666;2023-04-08T05:45:13;98591.16;;;4.74;100.00
55217;BME280;41086;46.736;15.666;2023-04-08T05:47:40;98597.06;;;4.79;100.00
55217;BME280;41086;46.736;15.666;2023-04-08T05:50:07;98601.13;;;4.86;100.00
55217;BME280;41086;46.736;15.666;2023-04-08T05:52:34;98601.13;;;4.86;100.00
55217;BME280;41086;46.736;15.666;2023-04-08T05:55:01;98600.28;;;4.86;100.00
55217;BME280;41086;46.736;15.666;2023-04-08T05:57:28;98609.69;;;4.92;100.00
55217;BME280;41086;46.736;15.666;2023-04-08T05:59:55;98603.50;;;4.93;100.00
55217;BME280;41086;46.736;15.666;2023-04-08T06:02:23;98615.22;;;5.04;100.00
55217;BME280;41086;46.736;15.666;2023-04-08T06:04:50;98608.41;;;5.00;100.00
55217;BME280;41086;46.736;15.666;2023-04-08T06:07:17;98608.31;;;5.02;100.00
55217;BME280;41086;46.736;15.666;2023-04-08T06:09:45;98606.16;;;5.11;100.00
55217;BME280;41086;46.736;15.666;2023-04-08T06:12:11;98606.53;;;5.23;100.00
55217;BME280;41086;46.736;15.666;2023-04-08T06:14:38;98611.31;;;5.33;100.00
55217;BME280;41086;46.736;15.666;2023-04-08T06:17:05;98607.41;;;5.42;100.00
55217;BME280;41086;46.736;15.666;2023-04-08T06:19:32;98610.63;;;5.49;100.00
55217;BME280;41086;46.736;15.666;2023-04-08T06:21:58;98609.53;;;5.53;100.00
55217;BME280;41086;46.736;15.666;2023-04-08T06:24:25;98608.53;;;5.55;100.00
55217;BME280;41086;46.736;15.666;2023-04-08T06:26:53;98609.34;;;5.58;100.00
55217;BME280;41086;46.736;15.666;2023-04-08T06:29:20;98613.09;;;5.52;100.00
55217;BME280;41086;46.736;15.666;2023-04-08T06:31:48;98613.00;;;5.53;100.00
55217;BME280;41086;46.736;15.666;2023-04-08T06:34:15;98613.81;;;5.55;100.00
55217;BME280;41086;46.736;15.666;2023-04-08T06:36:46;98612.59;;;5.63;100.00
55217;BME280;41086;46.736;15.666;2023-04-08T06:39:14;98618.72;;;5.63;100.00
55217;BME280;41086;46.736;15.666;2023-04-08T06:41:42;98610.19;;;5.58;100.00
55217;BME280;41086;46.736;15.666;2023-04-08T06:44:26;98625.06;;;5.59;100.00
55217;BME280;41086;46.736;15.666;2023-04-08T06:46:53;98625.16;;;5.56;100.00
55217;BME280;41086;46.736;15.666;2023-04-08T06:49:20;98633.84;;;5.58;100.00
55217;BME280;41086;46.736;15.666;2023-04-08T06:51:47;98626.03;;;5.57;100.00
55217;BME280;41086;46.736;15.666;2023-04-08T06:54:14;98632.00;;;5.60;100.00
55217;BME280;41086;46.736;15.666;2023-04-08T06:56:42;98633.56;;;5.64;100.00
55217;BME280;41086;46.736;15.666;2023-04-08T06:59:10;98630.88;;;5.66;100.00
55217;BME280;41086;46.736;15.666;2023-04-08T07:01:39;98633.50;;;5.66;100.00
55217;BME280;41086;46.736;15.666;2023-04-08T07:04:09;98637.97;;;5.64;100.00
55217;BME280;41086;46.736;15.666;2023-04-08T07:06:37;98637.97;;;5.64;100.00
55217;BME280;41086;46.736;15.666;2023-04-08T07:09:04;98639.03;;;5.60;100.00
55217;BME280;41086;46.736;15.666;2023-04-08T07:11:31;98648.97;;;5.53;100.00
55217;BME280;41086;46.736;15.666;2023-04-08T07:13:58;98650.00;;;5.30;100.00
55217;BME280;41086;46.736;15.666;2023-04-08T07:16:26;98647.34;;;5.11;100.00
55217;BME280;41086;46.736;15.666;2023-04-08T07:18:53;98651.84;;;5.07;100.00
55217;BME280;41086;46.736;15.666;2023-04-08T07:21:20;98650.50;;;4.99;100.00
55217;BME280;41086;46.736;15.666;2023-04-08T07:23:48;98657.66;;;4.95;100.00
55217;BME280;41086;46.736;15.666;2023-04-08T07:26:15;98659.50;;;4.93;100.00
55217;BME280;41086;46.736;15.666;2023-04-08T07:28:42;98661.13;;;4.96;100.00
55217;BME280;41086;46.736;15.666;2023-04-08T07:31:12;98665.50;;;4.75;100.00
55217;BME280;41086;46.736;15.666;2023-04-08T07:33:40;98667.38;;;4.73;100.00
55217;BME280;41086;46.736;15.666;2023-04-08T07:36:10;98663.69;;;4.77;100.00
55217;BME280;41086;46.736;15.666;2023-04-08T07:38:38;98664.53;;;4.77;100.00
55217;BME280;41086;46.736;15.666;2023-04-08T07:41:05;98667.09;;;4.79;100.00
55217;BME280;41086;46.736;15.666;2023-04-08T07:43:32;98671.50;;;4.78;100.00
55217;BME280;41086;46.736;15.666;2023-04-08T07:46:08;98673.22;;;4.79;100.00
55217;BME280;41086;46.736;15.666;2023-04-08T07:48:35;98676.81;;;4.77;100.00
55217;BME280;41086;46.736;15.666;2023-04-08T07:51:03;98676.38;;;4.87;100.00
55217;BME280;41086;46.736;15.666;2023-04-08T07:53:36;98682.59;;;4.85;100.00
55217;BME280;41086;46.736;15.666;2023-04-08T07:56:10;98679.25;;;4.81;100.00
55217;BME280;41086;46.736;15.666;2023-04-08T07:58:37;98676.44;;;4.86;100.00
55217;BME280;41086;46.736;15.666;2023-04-08T08:01:04;98680.31;;;4.98;100.00
55217;BME280;41086;46.736;15.666;2023-04-08T08:03:39;98681.25;;;4.97;100.00
55217;BME280;41086;46.736;15.666;2023-04-08T08:06:06;98687.59;;;4.91;100.00
55217;BME280;41086;46.736;15.666;2023-04-08T08:08:33;98689.44;;;4.89;100.00
55217;BME280;41086;46.736;15.666;2023-04-08T08:11:01;98687.00;;;4.84;100.00
55217;BME280;41086;46.736;15.666;2023-04-08T08:13:28;98689.56;;;4.86;100.00
55217;BME280;41086;46.736;15.666;2023-04-08T08:15:55;98699.94;;;4.89;100.00
55217;BME280;41086;46.736;15.666;2023-04-08T08:18:22;98699.94;;;4.89;100.00
55217;BME280;41086;46.736;15.666;2023-04-08T08:20:49;98695.41;;;4.93;100.00
55217;BME280;41086;46.736;15.666;2023-04-08T08:23:16;98695.72;;;4.85;100.00
55217;BME280;41086;46.736;15.666;2023-04-08T08:25:43;98697.50;;;4.84;100.00
55217;BME280;41086;46.736;15.666;2023-04-08T08:28:09;98709.00;;;4.82;100.00
55217;BME280;41086;46.736;15.666;2023-04-08T08:30:36;98708.34;;;4.97;100.00
55217;BME280;41086;46.736;15.666;2023-04-08T08:33:03;98711.03;;;4.96;100.00
55217;BME280;41086;46.736;15.666;2023-04-08T08:35:31;98710.44;;;5.09;100.00
55217;BME280;41086;46.736;15.666;2023-04-08T08:37:59;98711.28;;;5.10;100.00
55217;BME280;41086;46.736;15.666;2023-04-08T08:40:26;98717.88;;;5.20;100.00
55217;BME280;41086;46.736;15.666;2023-04-08T08:42:53;98714.91;;;5.28;100.00
55217;BME280;41086;46.736;15.666;2023-04-08T08:45:20;98714.22;;;5.24;100.00
55217;BME280;41086;46.736;15.666;2023-04-08T08:47:47;98721.56;;;5.16;100.00
55217;BME280;41086;46.736;15.666;2023-04-08T08:50:17;98730.22;;;5.18;100.00
55217;BME280;41086;46.736;15.666;2023-04-08T08:52:47;98730.97;;;5.22;100.00
55217;BME280;41086;46.736;15.666;2023-04-08T08:55:16;98722.91;;;5.04;100.00
55217;BME280;41086;46.736;15.666;2023-04-08T08:58:03;98736.94;;;5.05;100.00
55217;BME280;41086;46.736;15.666;2023-04-08T09:00:36;98741.72;;;5.16;100.00
55217;BME280;41086;46.736;15.666;2023-04-08T09:03:25;98742.91;;;5.08;100.00
55217;BME280;41086;46.736;15.666;2023-04-08T09:05:57;98746.66;;;5.03;100.00
55217;BME280;41086;46.736;15.666;2023-04-08T09:11:11;98746.25;;;4.92;100.00
55217;BME280;41086;46.736;15.666;2023-04-08T09:13:38;98748.16;;;5.08;100.00
55217;BME280;41086;46.736;15.666;2023-04-08T09:16:07;98749.59;;;5.16;100.00
55217;BME280;41086;46.736;15.666;2023-04-08T09:18:36;98758.19;;;4.99;100.00
55217;BME280;41086;46.736;15.666;2023-04-08T09:21:04;98753.25;;;4.91;100.00
55217;BME280;41086;46.736;15.666;2023-04-08T09:26:15;98763.31;;;5.02;100.00
55217;BME280;41086;46.736;15.666;2023-04-08T09:28:44;98768.03;;;4.94;100.00
55217;BME280;41086;46.736;15.666;2023-04-08T09:31:25;98760.03;;;4.97;100.00
55217;BME280;41086;46.736;15.666;2023-04-08T09:33:55;98760.97;;;5.16;100.00
55217;BME280;41086;46.736;15.666;2023-04-08T09:36:23;98761.94;;;5.34;100.00
55217;BME280;41086;46.736;15.666;2023-04-08T09:38:52;98765.94;;;5.43;100.00
55217;BME280;41086;46.736;15.666;2023-04-08T09:41:21;98760.13;;;5.57;100.00
55217;BME280;41086;46.736;15.666;2023-04-08T09:43:50;98756.94;;;5.69;100.00
55217;BME280;41086;46.736;15.666;2023-04-08T10:00:15;98766.22;;;6.17;100.00
55217;BME280;41086;46.736;15.666;2023-04-08T10:05:35;98782.41;;;6.08;100.00
55217;BME280;41086;46.736;15.666;2023-04-08T10:08:04;98779.56;;;6.12;100.00
55217;BME280;41086;46.736;15.666;2023-04-08T10:10:37;98776.50;;;6.21;100.00
55217;BME280;41086;46.736;15.666;2023-04-08T10:13:05;98779.50;;;6.33;100.00
55217;BME280;41086;46.736;15.666;2023-04-08T10:15:33;98777.38;;;6.41;100.00
55217;BME280;41086;46.736;15.666;2023-04-08T10:23:08;98788.03;;;6.57;100.00
55217;BME280;41086;46.736;15.666;2023-04-08T10:25:39;98785.25;;;6.60;100.00
55217;BME280;41086;46.736;15.666;2023-04-08T10:33:30;98788.81;;;6.40;100.00
55217;BME280;41086;46.736;15.666;2023-04-08T10:36:08;98796.66;;;6.41;100.00
55217;BME280;41086;46.736;15.666;2023-04-08T10:38:39;98793.53;;;6.52;100.00
55217;BME280;41086;46.736;15.666;2023-04-08T10:41:10;98786.28;;;6.38;100.00
55217;BME280;41086;46.736;15.666;2023-04-08T10:43:47;98794.56;;;6.48;100.00
55217;BME280;41086;46.736;15.666;2023-04-08T10:46:14;98791.44;;;6.59;100.00
55217;BME280;41086;46.736;15.666;2023-04-08T10:48:41;98794.38;;;6.53;100.00
55217;BME280;41086;46.736;15.666;2023-04-08T10:51:07;98792.16;;;6.62;100.00
55217;BME280;41086;46.736;15.666;2023-04-08T10:53:37;98792.66;;;6.71;100.00
55217;BME280;41086;46.736;15.666;2023-04-08T10:56:09;98791.72;;;6.72;100.00
55217;BME280;41086;46.736;15.666;2023-04-08T10:58:53;98789.22;;;6.69;100.00
55217;BME280;41086;46.736;15.666;2023-04-08T11:01:22;98790.78;;;6.73;100.00
55217;BME280;41086;46.736;15.666;2023-04-08T11:03:49;98797.53;;;6.78;100.00
55217;BME280;41086;46.736;15.666;2023-04-08T11:06:16;98783.19;;;6.84;100.00
55217;BME280;41086;46.736;15.666;2023-04-08T11:08:44;98794.69;;;6.83;100.00
55217;BME280;41086;46.736;15.666;2023-04-08T11:11:11;98793.84;;;6.82;100.00
55217;BME280;41086;46.736;15.666;2023-04-08T11:13:41;98802.88;;;6.77;100.00
55217;BME280;41086;46.736;15.666;2023-04-08T11:16:20;98781.81;;;6.77;100.00
55217;BME280;41086;46.736;15.666;2023-04-08T11:18:47;98791.88;;;6.50;100.00
55217;BME280;41086;46.736;15.666;2023-04-08T11:21:15;98795.78;;;6.60;100.00
55217;BME280;41086;46.736;15.666;2023-04-08T11:23:42;98792.41;;;6.75;100.00
55217;BME280;41086;46.736;15.666;2023-04-08T11:26:09;98793.47;;;6.90;100.00
55217;BME280;41086;46.736;15.666;2023-04-08T11:28:36;98783.16;;;7.03;100.00
55217;BME280;41086;46.736;15.666;2023-04-08T11:31:04;98793.31;;;7.10;100.00
55217;BME280;41086;46.736;15.666;2023-04-08T11:33:31;98783.25;;;7.19;100.00
55217;BME280;41086;46.736;15.666;2023-04-08T11:36:01;98780.41;;;7.23;100.00
55217;BME280;41086;46.736;15.666;2023-04-08T11:38:30;98792.50;;;7.27;100.00
55217;BME280;41086;46.736;15.666;2023-04-08T11:40:58;98781.19;;;7.25;100.00
55217;BME280;41086;46.736;15.666;2023-04-08T11:43:25;98781.81;;;7.30;100.00
55217;BME280;41086;46.736;15.666;2023-04-08T11:45:52;98785.19;;;7.32;100.00
55217;BME280;41086;46.736;15.666;2023-04-08T11:48:19;98783.56;;;7.30;100.00
55217;BME280;41086;46.736;15.666;2023-04-08T11:50:46;98787.13;;;7.29;100.00
55217;BME280;41086;46.736;15.666;2023-04-08T11:53:17;98781.81;;;7.30;100.00
55217;BME280;41086;46.736;15.666;2023-04-08T11:55:47;98778.91;;;7.35;100.00
55217;BME280;41086;46.736;15.666;2023-04-08T11:58:15;98774.25;;;7.40;100.00
55217;BME280;41086;46.736;15.666;2023-04-08T12:00:43;98777.34;;;7.48;100.00
55217;BME280;41086;46.736;15.666;2023-04-08T12:03:11;98779.59;;;7.56;100.00
55217;BME280;41086;46.736;15.666;2023-04-08T12:05:39;98774.00;;;7.62;100.00
55217;BME280;41086;46.736;15.666;2023-04-08T12:08:06;98780.63;;;7.71;100.00
55217;BME280;41086;46.736;15.666;2023-04-08T12:10:33;98774.50;;;7.86;100.00
55217;BME280;41086;46.736;15.666;2023-04-08T12:13:00;98781.88;;;7.97;100.00
55217;BME280;41086;46.736;15.666;2023-04-08T12:15:27;98783.25;;;8.04;100.00
55217;BME280;41086;46.736;15.666;2023-04-08T12:17:58;98784.53;;;8.13;100.00
55217;BME280;41086;46.736;15.666;2023-04-08T12:20:25;98778.66;;;8.08;100.00
55217;BME280;41086;46.736;15.666;2023-04-08T12:22:52;98777.72;;;8.09;100.00
55217;BME280;41086;46.736;15.666;2023-04-08T12:25:19;98778.75;;;8.06;100.00
55217;BME280;41086;46.736;15.666;2023-04-08T12:27:47;98779.50;;;8.08;100.00
55217;BME280;41086;46.736;15.666;2023-04-08T12:30:14;98774.78;;;7.97;100.00
55217;BME280;41086;46.736;15.666;2023-04-08T12:32:42;98785.63;;;7.93;100.00
55217;BME280;41086;46.736;15.666;2023-04-08T12:35:11;98770.97;;;7.70;100.00
55217;BME280;41086;46.736;15.666;2023-04-08T12:37:38;98786.91;;;7.68;100.00
55217;BME280;41086;46.736;15.666;2023-04-08T12:40:05;98782.69;;;7.64;100.00
55217;BME280;41086;46.736;15.666;2023-04-08T12:42:32;98786.34;;;7.62;100.00
55217;BME280;41086;46.736;15.666;2023-04-08T12:45:00;98779.44;;;7.59;100.00
55217;BME280;41086;46.736;15.666;2023-04-08T12:47:27;98775.56;;;7.66;100.00
55217;BME280;41086;46.736;15.666;2023-04-08T12:49:54;98776.94;;;7.73;100.00
55217;BME280;41086;46.736;15.666;2023-04-08T12:52:20;98785.41;;;7.80;100.00
55217;BME280;41086;46.736;15.666;2023-04-08T12:54:48;98778.78;;;7.89;100.00
55217;BME280;41086;46.736;15.666;2023-04-08T12:57:15;98775.06;;;7.93;100.00
55217;BME280;41086;46.736;15.666;2023-04-08T12:59:41;98778.16;;;8.01;100.00
55217;BME280;41086;46.736;15.666;2023-04-08T13:02:08;98785.50;;;8.12;100.00
55217;BME280;41086;46.736;15.666;2023-04-08T13:04:35;98778.63;;;8.25;100.00
55217;BME280;41086;46.736;15.666;2023-04-08T13:07:02;98773.16;;;8.28;100.00
55217;BME280;41086;46.736;15.666;2023-04-08T13:09:29;98774.44;;;8.37;100.00
55217;BME280;41086;46.736;15.666;2023-04-08T13:11:56;98778.00;;;8.36;100.00
55217;BME280;41086;46.736;15.666;2023-04-08T13:14:24;98783.28;;;8.36;100.00
55217;BME280;41086;46.736;15.666;2023-04-08T13:16:51;98774.06;;;8.27;100.00
55217;BME280;41086;46.736;15.666;2023-04-08T13:19:18;98770.75;;;8.24;100.00
55217;BME280;41086;46.736;15.666;2023-04-08T13:21:46;98779.00;;;7.84;100.00
55217;BME280;41086;46.736;15.666;2023-04-08T13:24:12;98769.63;;;7.78;100.00
55217;BME280;41086;46.736;15.666;2023-04-08T13:26:39;98775.94;;;7.76;100.00
55217;BME280;41086;46.736;15.666;2023-04-08T13:29:06;98773.44;;;7.73;100.00
55217;BME280;41086;46.736;15.666;2023-04-08T13:31:33;98773.28;;;7.76;100.00
55217;BME280;41086;46.736;15.666;2023-04-08T13:34:00;98774.06;;;7.78;100.00